Detall de PIREP

Printer-friendly versionPDF version

[2015/11/07 16:20:00]
Flight IATA:CT3305
Pilot Number:012
Company ICAO:CAT
Aircraft Type:MD11/E
PAX:266
Aircraft Registration:PAX
Departing Airport: GMMN
Destination Airport: LEZG
Alternate Airport:LEBL
Online: VATSIM
Route:AGDAL G5 TOLSI UG5 KORIS UL27 MAR UN871 RONKO UM601 SURCO
Flight Level:F320
No Slew and time accel
No pause
Crash detect
Detect pilot in Cockpit between each 30 and 45 minutes
16:20 Zero fuel Weight: 415870 Lbs, Fuel Weight: 55903 Lbs
16:20 VATSIM:GMMN 071600Z 33009KT CAVOK 26/18 Q1019 NOSIG
16:20 VATSIM:LEZG 071600Z 31006KT CAVOK 20/15 Q1027
16:21 Parking Brakes off
16:26 Take-off
16:26 Take off Weight: 470419 Lbs
16:26 Wind: 332º @ 009 Knots Heading: 343º
16:26 POS N33º 22´ 09´´ W007º 35´ 18´´
16:26 Gear Up: 205 Knots
16:26 Flaps:3 at 205 Knots
16:26 Flaps:2 at 214 Knots
16:26 Flaps:3 at 216 Knots
16:26 Flaps:2 at 216 Knots
16:26 Flaps:1 at 217 Knots
16:28 Flaps:0 at 242 Knots
16:38 TOC
16:38 Fuel Weight: 46303 Lb
16:41 Wind:072º@005 Knots Heading: 027º Ground Speed: 488 Knots Altitude 32188 ft
16:56 Wind:275º@004 Knots Heading: 045º Ground Speed: 494 Knots Altitude 32276 ft
17:11 Wind:263º@010 Knots Heading: 022º Ground Speed: 497 Knots Altitude 32316 ft
17:26 Wind:276º@015 Knots Heading: 032º Ground Speed: 497 Knots Altitude 32411 ft
17:41 Wind:267º@026 Knots Heading: 032º Ground Speed: 499 Knots Altitude 32417 ft
17:41 TOD
17:41 Fuel Weight: 28840 Lb
17:52 Flaps:1 at 241 Knots
17:54 Flaps:2 at 235 Knots
17:54 Flaps:3 at 230 Knots
17:54 Flaps:4 at 203 Knots
17:54 Flaps:3 at 202 Knots
17:54 Flaps:4 at 200 Knots
17:54 Flaps:5 at 197 Knots
17:55 Flaps:6 at 195 Knots
17:56 Wind:323º@001 Knots Heading: 219º Ground Speed: 207 Knots Altitude 7391 ft
17:57 Gear Down: 187 Knots
17:57 Flaps:7 at 193 Knots
17:57 Flaps:6 at 194 Knots
17:58 Flaps:7 at 191 Knots
17:58 Flaps:6 at 190 Knots
17:58 Flaps:7 at 190 Knots
17:58 Flaps:6 at 190 Knots
17:58 Flaps:7 at 189 Knots
18:01 TouchDown:Rate -485 ft/min Speed: 153 Knots
18:01 VATSIM:LEZG 071730Z 28006KT CAVOK 17/15 Q1027
18:01 Land
18:01 Wind:300º@004 Knots
18:01 Heading: 299º
18:01 Flight Duration: 01:35
18:01 Landing Weight: 441548 Lbs
18:01 POS N41º 39´ 59´´ W001º 02´ 02´´
18:04 Parking brakes on
18:04 Block to Block Duration: 01:43
18:04 Final Fuel: 25240 Lbls
18:04 Spent Fuel: 30663 Lbls
18:04 Flight Length: 711 NM
18:04 TOD Land Length: 106 NM

Exportar CSV

Powered by Drupal - Modified by Danger4k